createdAt,value
2023-11-18T00:01:49.673Z,26.30
2023-11-18T00:05:52.615Z,22.92
2023-11-18T00:09:55.414Z,22.67
2023-11-18T00:14:00.899Z,26.98
2023-11-18T00:18:04.656Z,26.52
2023-11-18T00:22:08.321Z,24.65
2023-11-18T00:26:11.578Z,23.15
2023-11-18T00:30:16.514Z,22.90
2023-11-18T00:34:19.560Z,21.02
2023-11-18T00:38:22.270Z,19.92
2023-11-18T00:42:25.038Z,17.27
2023-11-18T00:46:29.622Z,16.35
2023-11-18T00:50:32.732Z,16.23
2023-11-18T00:54:36.980Z,15.50
2023-11-18T00:58:41.640Z,15.38
2023-11-18T01:02:48.189Z,16.23
2023-11-18T01:06:52.546Z,15.25
2023-11-18T01:10:55.522Z,15.88
2023-11-18T01:14:58.358Z,16.73
2023-11-18T01:19:02.569Z,15.07
2023-11-18T01:23:05.783Z,15.93
2023-11-18T01:27:10.913Z,20.77
2023-11-18T01:31:14.588Z,17.30
2023-11-18T01:35:19.109Z,12.38
2023-11-18T01:39:22.109Z,12.65
2023-11-18T01:43:25.209Z,12.32
2023-11-18T01:47:28.982Z,12.05
2023-11-18T01:51:33.176Z,13.60
2023-11-18T01:55:36.555Z,18.15
2023-11-18T01:59:41.758Z,15.52
2023-11-18T02:03:44.800Z,19.83
2023-11-18T02:07:49.167Z,18.27
2023-11-18T02:11:56.192Z,13.35
2023-11-18T02:15:59.688Z,18.30
2023-11-18T02:20:07.353Z,16.20
2023-11-18T02:24:12.426Z,13.60
2023-11-18T02:28:16.972Z,14.90
2023-11-18T02:32:24.953Z,17.58
2023-11-18T02:36:37.194Z,17.98
2023-11-18T02:40:45.343Z,18.90
2023-11-18T02:44:51.125Z,21.80
2023-11-18T02:48:55.158Z,18.42
2023-11-18T02:57:01.073Z,17.05
2023-11-18T03:01:06.343Z,24.27
2023-11-18T03:05:12.920Z,18.50
2023-11-18T03:09:16.543Z,19.80
2023-11-18T03:13:19.424Z,18.60
2023-11-18T03:17:24.143Z,17.33
2023-11-18T03:21:27.751Z,18.08
2023-11-18T03:25:30.685Z,17.90
2023-11-18T03:29:33.551Z,16.55
2023-11-18T03:33:37.756Z,16.23
2023-11-18T03:37:43.266Z,17.60
2023-11-18T03:41:46.925Z,15.68
2023-11-18T03:45:49.671Z,14.55
2023-11-18T03:49:56.042Z,13.25
2023-11-18T03:53:58.906Z,15.00
2023-11-18T03:58:02.443Z,16.63
2023-11-18T04:02:05.654Z,14.55
2023-11-18T04:06:10.445Z,14.63
2023-11-18T04:10:13.476Z,13.75
2023-11-18T04:14:16.202Z,15.88
2023-11-18T04:18:19.296Z,13.30
2023-11-18T04:22:23.573Z,13.40
2023-11-18T04:26:26.811Z,12.45
2023-11-18T04:30:30.052Z,12.50
2023-11-18T04:34:34.070Z,13.00
2023-11-18T04:42:41.611Z,12.70
2023-11-18T04:46:45.138Z,11.55
2023-11-18T04:50:47.977Z,13.43
2023-11-18T04:54:52.178Z,12.30
2023-11-18T04:58:56.103Z,12.32
2023-11-18T05:03:00.238Z,10.75
2023-11-18T05:07:03.500Z,11.88
2023-11-18T05:11:08.085Z,13.07
2023-11-18T05:15:11.033Z,13.23
2023-11-18T05:19:13.929Z,11.93
2023-11-18T05:23:17.145Z,12.15
2023-11-18T05:27:21.722Z,12.73
2023-11-18T05:31:24.453Z,13.30
2023-11-18T05:35:29.617Z,13.10
2023-11-18T05:39:32.769Z,11.75
2023-11-18T05:43:41.194Z,12.25
2023-11-18T05:47:44.358Z,14.20
2023-11-18T05:51:47.425Z,12.05
2023-11-18T05:55:51.069Z,11.32
2023-11-18T05:59:56.144Z,11.05
2023-11-18T06:03:59.095Z,17.00
2023-11-18T06:08:01.973Z,9.65
2023-11-18T06:12:10.043Z,11.27
2023-11-18T06:16:16.713Z,10.85
2023-11-18T06:20:21.625Z,11.32
2023-11-18T06:24:24.380Z,11.10
2023-11-18T06:28:27.333Z,11.75
2023-11-18T06:32:32.189Z,11.63
2023-11-18T06:36:34.965Z,11.70
2023-11-18T06:40:37.890Z,13.38
2023-11-18T06:44:40.602Z,11.43
2023-11-18T06:48:44.863Z,11.57
2023-11-18T06:52:48.189Z,12.25
2023-11-18T06:56:52.696Z,10.40
2023-11-18T07:00:55.501Z,12.10
2023-11-18T07:04:59.760Z,11.32
2023-11-18T07:09:02.605Z,11.90
2023-11-18T07:13:05.309Z,11.30
2023-11-18T07:17:09.721Z,13.82
2023-11-18T07:21:15.655Z,13.52
2023-11-18T07:25:18.519Z,12.55
2023-11-18T07:29:21.378Z,13.93
2023-11-18T07:33:24.374Z,15.40
2023-11-18T07:37:29.244Z,16.20
2023-11-18T07:41:34.106Z,13.70
2023-11-18T07:45:38.696Z,15.45
2023-11-18T07:49:42.366Z,17.33
2023-11-18T07:53:46.477Z,14.10
2023-11-18T08:01:51.897Z,15.40
2023-11-18T08:05:54.644Z,14.88
2023-11-18T08:09:58.914Z,17.25
2023-11-18T08:14:01.737Z,16.10
2023-11-18T08:18:05.313Z,17.75
2023-11-18T08:22:10.288Z,16.05
2023-11-18T08:26:15.490Z,16.08
2023-11-18T08:30:19.428Z,15.88
2023-11-18T08:34:22.334Z,15.82
2023-11-18T08:38:25.644Z,15.32
2023-11-18T08:42:30.533Z,14.05
2023-11-18T08:46:33.365Z,15.20
2023-11-18T08:50:37.307Z,15.77
2023-11-18T08:59:04.553Z,14.80
2023-11-18T09:03:07.760Z,17.35
2023-11-18T09:07:11.371Z,15.77
2023-11-18T09:11:16.809Z,19.45
2023-11-18T09:15:23.693Z,16.15
2023-11-18T09:19:26.538Z,15.38
2023-11-18T09:23:30.041Z,12.98
2023-11-18T09:27:34.217Z,15.05
2023-11-18T09:31:38.778Z,15.93
2023-11-18T09:35:42.177Z,16.15
2023-11-18T09:39:47.156Z,13.20
2023-11-18T09:43:54.226Z,12.85
2023-11-18T09:48:02.664Z,13.02
2023-11-18T09:52:07.048Z,13.18
2023-11-18T09:56:19.950Z,12.52
2023-11-18T10:00:27.619Z,11.23
2023-11-18T10:04:32.744Z,12.50
2023-11-18T10:08:39.189Z,11.88
2023-11-18T10:12:42.660Z,15.20
2023-11-18T10:16:48.129Z,15.07
2023-11-18T10:20:53.424Z,14.07
2023-11-18T10:24:56.740Z,14.32
2023-11-18T10:29:08.294Z,12.40
2023-11-18T10:33:12.907Z,10.48
2023-11-18T10:37:18.266Z,12.93
2023-11-18T10:41:21.432Z,10.85
2023-11-18T10:45:28.865Z,10.68
2023-11-18T10:49:38.384Z,11.18
2023-11-18T10:53:54.840Z,11.65
2023-11-18T10:58:02.660Z,12.05
2023-11-18T11:02:22.756Z,11.82
2023-11-18T11:06:26.289Z,11.70
2023-11-18T11:10:30.590Z,12.48
2023-11-18T11:14:38.066Z,12.45
2023-11-18T11:18:46.417Z,11.07
2023-11-18T11:22:59.480Z,10.50
2023-11-18T11:27:18.365Z,10.50
2023-11-18T11:31:24.777Z,11.05
2023-11-18T11:35:34.370Z,10.20
2023-11-18T11:39:37.902Z,10.15
2023-11-18T11:43:42.471Z,8.75
2023-11-18T11:47:47.703Z,9.40
2023-11-18T11:51:55.332Z,8.73
2023-11-18T11:56:06.633Z,8.55
2023-11-18T12:00:17.671Z,8.50
2023-11-18T12:04:26.732Z,9.02
2023-11-18T12:08:31.197Z,8.10
2023-11-18T12:12:36.081Z,8.00
2023-11-18T12:17:12.670Z,8.70
2023-11-18T12:21:56.123Z,9.27
2023-11-18T12:25:59.757Z,8.85
2023-11-18T12:34:11.531Z,9.63
2023-11-18T12:38:59.058Z,7.93
2023-11-18T12:43:14.575Z,8.90
2023-11-18T12:47:22.222Z,10.00
2023-11-18T12:51:26.550Z,9.38
2023-11-18T12:55:32.641Z,8.40
2023-11-18T12:59:35.814Z,8.20
2023-11-18T13:03:39.014Z,7.80
2023-11-18T13:07:44.509Z,9.00
2023-11-18T13:11:48.721Z,8.70
2023-11-18T13:15:55.020Z,9.05
2023-11-18T13:19:59.386Z,8.15
2023-11-18T13:24:09.874Z,9.75
2023-11-18T13:28:13.862Z,10.55
2023-11-18T13:36:34.340Z,7.80
2023-11-18T13:40:48.959Z,7.45
2023-11-18T13:44:54.144Z,7.78
2023-11-18T13:48:57.414Z,7.53
2023-11-18T13:53:00.387Z,6.70
2023-11-18T13:57:05.285Z,7.95
2023-11-18T14:01:09.687Z,7.78
2023-11-18T14:05:18.483Z,6.60
2023-11-18T14:09:22.676Z,6.85
2023-11-18T14:13:36.192Z,5.85
2023-11-18T14:17:39.068Z,6.00
2023-11-18T14:21:42.772Z,5.97
2023-11-18T14:25:45.511Z,6.50
2023-11-18T14:29:50.031Z,6.10
2023-11-18T14:33:52.774Z,6.10
2023-11-18T14:37:55.763Z,6.20
2023-11-18T14:41:59.295Z,6.03
2023-11-18T14:46:04.991Z,5.93
2023-11-18T14:50:19.005Z,5.93
2023-11-18T14:54:22.021Z,4.72
2023-11-18T14:58:24.781Z,4.60
2023-11-18T15:02:29.888Z,4.35
2023-11-18T15:06:32.753Z,4.75
2023-11-18T15:10:35.491Z,4.55
2023-11-18T15:14:40.216Z,3.97
2023-11-18T15:18:48.437Z,4.22
2023-11-18T15:22:51.932Z,4.53
2023-11-18T15:26:55.561Z,7.30
2023-11-18T15:30:58.477Z,5.38
2023-11-18T15:35:02.691Z,4.80
2023-11-18T15:39:07.179Z,4.80
2023-11-18T15:43:12.784Z,7.32
2023-11-18T15:47:16.380Z,6.78
2023-11-18T15:51:23.585Z,6.90
2023-11-18T15:55:26.504Z,13.10
2023-11-18T15:59:29.713Z,7.63
2023-11-18T16:03:32.554Z,5.20
2023-11-18T16:07:36.762Z,4.50
2023-11-18T16:11:39.508Z,4.38
2023-11-18T16:15:42.490Z,3.95
2023-11-18T16:19:45.871Z,4.03
2023-11-18T16:23:50.472Z,3.90
2023-11-18T16:27:54.394Z,3.92
2023-11-18T16:31:57.421Z,3.17
2023-11-18T16:36:00.852Z,4.10
2023-11-18T16:40:05.848Z,4.30
2023-11-18T16:44:10.857Z,3.33
2023-11-18T16:48:13.564Z,4.07
2023-11-18T16:52:16.922Z,3.20
2023-11-18T16:56:21.339Z,4.03
2023-11-18T17:00:24.994Z,2.63
2023-11-18T17:08:31.290Z,3.10
2023-11-18T17:12:36.816Z,3.50
2023-11-18T17:16:39.666Z,3.03
2023-11-18T17:20:42.668Z,4.32
2023-11-18T17:24:45.490Z,3.50
2023-11-18T17:28:51.689Z,5.45
2023-11-18T17:32:54.859Z,3.92
2023-11-18T17:36:58.166Z,4.30
2023-11-18T17:41:00.911Z,7.10
2023-11-18T17:45:06.658Z,5.78
2023-11-18T17:49:10.042Z,5.60
2023-11-18T17:53:12.815Z,5.20
2023-11-18T17:57:16.119Z,7.07
2023-11-18T18:01:21.183Z,5.57
2023-11-18T18:05:25.477Z,5.35
2023-11-18T18:09:28.615Z,7.05
2023-11-18T18:13:32.707Z,5.47
2023-11-18T18:17:37.950Z,6.32
2023-11-18T18:21:41.250Z,6.57
2023-11-18T18:25:44.388Z,7.03
2023-11-18T18:29:47.421Z,6.85
2023-11-18T18:33:52.351Z,9.00
2023-11-18T18:37:55.165Z,9.80
2023-11-18T18:41:58.451Z,12.05
2023-11-18T18:46:01.399Z,9.05
2023-11-18T18:50:08.623Z,8.70
2023-11-18T18:54:12.347Z,6.85
2023-11-18T18:58:15.175Z,7.10
2023-11-18T19:02:18.041Z,7.28
2023-11-18T19:06:22.271Z,6.57
2023-11-18T19:10:26.172Z,7.22
2023-11-18T19:14:29.110Z,6.82
2023-11-18T19:18:31.884Z,7.07
2023-11-18T19:22:36.275Z,6.45
2023-11-18T19:26:39.183Z,7.15
2023-11-18T19:30:41.928Z,7.18
2023-11-18T19:34:44.645Z,6.88
2023-11-18T19:38:49.001Z,6.53
2023-11-18T19:42:51.990Z,6.15
2023-11-18T19:46:54.732Z,9.18
2023-11-18T19:50:57.816Z,6.65
2023-11-18T19:55:02.073Z,7.45
2023-11-18T19:59:05.964Z,7.05
2023-11-18T20:03:09.064Z,8.32
2023-11-18T20:07:11.873Z,7.82
2023-11-18T20:11:16.077Z,7.03
2023-11-18T20:15:19.093Z,7.85
2023-11-18T20:19:22.467Z,14.50
2023-11-18T20:23:27.239Z,8.20
2023-11-18T20:27:31.409Z,5.20
2023-11-18T20:31:34.143Z,5.40
2023-11-18T20:35:37.093Z,3.75
2023-11-18T20:39:41.690Z,2.50
2023-11-18T20:43:46.165Z,3.70
2023-11-18T20:47:49.864Z,4.03
2023-11-18T20:51:54.220Z,7.68
2023-11-18T20:55:56.956Z,9.13
2023-11-18T21:00:01.376Z,9.23
2023-11-18T21:04:04.361Z,9.93
2023-11-18T21:08:09.154Z,6.47
2023-11-18T21:12:18.205Z,8.00
2023-11-18T21:16:23.731Z,6.80
2023-11-18T21:20:26.499Z,6.18
2023-11-18T21:24:29.272Z,6.85
2023-11-18T21:28:32.362Z,6.45
2023-11-18T21:32:42.714Z,6.60
2023-11-18T21:36:45.768Z,6.85
2023-11-18T21:40:48.670Z,6.45
2023-11-18T21:44:52.205Z,6.85
2023-11-18T21:48:56.357Z,6.10
2023-11-18T21:52:59.848Z,6.00
2023-11-18T21:57:02.634Z,5.80
2023-11-18T22:01:06.665Z,6.55
2023-11-18T22:05:11.232Z,7.20
2023-11-18T22:09:14.259Z,6.05
2023-11-18T22:13:17.096Z,5.07
2023-11-18T22:17:20.145Z,4.90
2023-11-18T22:21:24.799Z,4.68
2023-11-18T22:25:28.183Z,3.42
2023-11-18T22:29:31.249Z,3.80
2023-11-18T22:33:35.940Z,3.25
2023-11-18T22:37:40.187Z,2.80
2023-11-18T22:41:42.997Z,2.95
2023-11-18T22:45:47.618Z,5.40
2023-11-18T22:49:50.375Z,4.32
2023-11-18T22:53:55.811Z,3.90
2023-11-18T22:57:58.875Z,3.88
2023-11-18T23:02:03.415Z,3.50
2023-11-18T23:06:10.783Z,3.60
2023-11-18T23:10:16.152Z,4.18
2023-11-18T23:14:18.910Z,3.47
2023-11-18T23:18:21.779Z,3.03
2023-11-18T23:22:25.223Z,2.53
2023-11-18T23:26:30.776Z,2.33
2023-11-18T23:30:33.874Z,2.38
2023-11-18T23:34:36.607Z,2.60
2023-11-18T23:38:39.982Z,2.63
2023-11-18T23:42:44.697Z,3.20
2023-11-18T23:46:47.549Z,2.40
2023-11-18T23:50:51.397Z,2.67
